createdAt,value
2017-05-21T00:00:00.920Z,9.41
2017-05-21T00:00:05.331Z,9.42
2017-05-21T00:00:09.301Z,9.41
2017-05-21T00:00:13.674Z,9.41
2017-05-21T00:00:18.123Z,9.42
2017-05-21T00:00:22.446Z,9.41
2017-05-21T00:00:26.646Z,9.42
2017-05-21T00:00:30.748Z,9.42
2017-05-21T00:00:35.214Z,9.41
2017-05-21T00:00:39.302Z,9.42
2017-05-21T00:00:43.755Z,9.42
2017-05-21T00:00:48.205Z,9.42
2017-05-21T00:00:52.660Z,9.42
2017-05-21T00:00:57.119Z,9.41
2017-05-21T00:01:01.571Z,9.41
2017-05-21T00:01:05.894Z,9.42
2017-05-21T00:01:09.985Z,9.42
2017-05-21T00:01:14.072Z,9.42
2017-05-21T00:01:18.402Z,9.42
2017-05-21T00:01:22.918Z,9.43
2017-05-21T00:01:27.369Z,9.42
2017-05-21T00:01:31.345Z,9.43
2017-05-21T00:01:35.798Z,9.42
2017-05-21T00:01:40.315Z,9.42
2017-05-21T00:01:44.521Z,9.42
2017-05-21T00:01:48.978Z,9.43
2017-05-21T00:01:53.447Z,9.42
2017-05-21T00:01:57.902Z,9.43
2017-05-21T00:02:02.484Z,9.42
2017-05-21T00:02:06.830Z,9.42
2017-05-21T00:02:10.579Z,9.42
2017-05-21T00:02:14.796Z,9.42
2017-05-21T00:02:19.137Z,9.41
2017-05-21T00:02:23.464Z,9.43
2017-05-21T00:02:27.561Z,9.43
2017-05-21T00:02:31.537Z,9.42
2017-05-21T00:02:35.869Z,9.42
2017-05-21T00:02:40.079Z,9.42
2017-05-21T00:02:44.422Z,9.43
2017-05-21T00:02:48.867Z,9.43
2017-05-21T00:02:53.385Z,9.42
2017-05-21T00:02:57.835Z,9.43
2017-05-21T00:03:02.574Z,9.43
2017-05-21T00:03:06.902Z,9.43
2017-05-21T00:03:10.884Z,9.42
2017-05-21T00:03:15.225Z,9.43
2017-05-21T00:03:19.734Z,9.42
2017-05-21T00:03:24.074Z,9.43
2017-05-21T00:03:28.296Z,9.43
2017-05-21T00:03:32.271Z,9.43
2017-05-21T00:03:36.489Z,9.43
2017-05-21T00:03:40.964Z,9.43
2017-05-21T00:03:45.174Z,9.43
2017-05-21T00:03:49.500Z,9.43
2017-05-21T00:03:53.829Z,9.43
2017-05-21T00:03:58.171Z,9.41
2017-05-21T00:04:02.634Z,9.43
2017-05-21T00:04:06.971Z,9.42
2017-05-21T00:04:10.932Z,9.43
2017-05-21T00:04:15.139Z,9.43
2017-05-21T00:04:19.114Z,9.43
2017-05-21T00:04:23.325Z,9.43
2017-05-21T00:04:27.658Z,9.43
2017-05-21T00:04:31.758Z,9.43
2017-05-21T00:04:35.967Z,9.42
2017-05-21T00:04:40.172Z,9.43
2017-05-21T00:04:44.506Z,9.43
2017-05-21T00:04:48.851Z,9.43
2017-05-21T00:04:53.389Z,9.43
2017-05-21T00:04:57.868Z,9.42
2017-05-21T00:05:02.416Z,9.42
2017-05-21T00:05:06.524Z,9.43
2017-05-21T00:05:10.867Z,9.43
2017-05-21T00:05:14.739Z,9.42
2017-05-21T00:05:19.078Z,9.42
2017-05-21T00:05:23.402Z,9.43
2017-05-21T00:05:27.740Z,9.43
2017-05-21T00:05:31.821Z,9.43
2017-05-21T00:05:36.038Z,9.42
2017-05-21T00:05:40.375Z,9.42
2017-05-21T00:05:44.711Z,9.42
2017-05-21T00:05:49.166Z,9.41
2017-05-21T00:05:53.625Z,9.42
2017-05-21T00:05:57.726Z,9.42
2017-05-21T00:06:02.194Z,9.42
2017-05-21T00:06:06.531Z,9.41
2017-05-21T00:06:10.642Z,9.42
2017-05-21T00:06:14.733Z,9.42
2017-05-21T00:06:19.069Z,9.42
2017-05-21T00:06:23.583Z,9.42
2017-05-21T00:06:27.809Z,9.42
2017-05-21T00:06:32.151Z,9.43
2017-05-21T00:06:36.483Z,9.42
2017-05-21T00:06:40.800Z,9.41
2017-05-21T00:06:45.130Z,9.42
2017-05-21T00:06:49.660Z,9.41
2017-05-21T00:06:54.107Z,9.41
2017-05-21T00:06:58.432Z,9.42
2017-05-21T00:07:02.882Z,9.41
2017-05-21T00:07:06.983Z,9.42
2017-05-21T00:07:11.079Z,9.41
2017-05-21T00:07:15.293Z,9.42
2017-05-21T00:07:19.413Z,9.41
2017-05-21T00:07:23.861Z,9.41
2017-05-21T00:07:28.308Z,9.41
2017-05-21T00:07:32.184Z,9.41
2017-05-21T00:07:36.539Z,9.41
2017-05-21T00:07:40.988Z,9.41
2017-05-21T00:07:45.327Z,9.42
2017-05-21T00:07:49.676Z,9.41
2017-05-21T00:07:54.138Z,9.41
2017-05-21T00:07:58.664Z,9.41
2017-05-21T00:08:03.126Z,9.41
2017-05-21T00:08:07.218Z,9.4
2017-05-21T00:08:11.075Z,9.41
2017-05-21T00:08:15.177Z,9.41
2017-05-21T00:08:19.521Z,9.42
2017-05-21T00:08:23.974Z,9.41
2017-05-21T00:08:28.197Z,9.41
2017-05-21T00:08:32.180Z,9.41
2017-05-21T00:08:36.507Z,9.4
2017-05-21T00:08:40.978Z,9.41
2017-05-21T00:08:45.319Z,9.41
2017-05-21T00:08:49.828Z,9.4
2017-05-21T00:08:54.171Z,9.41
2017-05-21T00:08:58.634Z,9.41
2017-05-21T00:09:03.086Z,9.4
2017-05-21T00:09:07.176Z,9.4
2017-05-21T00:09:11.392Z,9.4
2017-05-21T00:09:15.263Z,9.4
2017-05-21T00:09:19.372Z,9.4
2017-05-21T00:09:23.825Z,9.4
2017-05-21T00:09:28.039Z,9.4
2017-05-21T00:09:32.040Z,9.39
2017-05-21T00:09:36.363Z,9.4
2017-05-21T00:09:40.818Z,9.4
2017-05-21T00:09:45.143Z,9.4
2017-05-21T00:09:49.594Z,9.4
2017-05-21T00:09:54.064Z,9.4
2017-05-21T00:09:58.492Z,9.4
2017-05-21T00:10:02.713Z,9.4
2017-05-21T00:10:06.822Z,9.39
2017-05-21T00:10:11.037Z,9.4
2017-05-21T00:10:15.257Z,9.39
2017-05-21T00:10:19.467Z,9.4
2017-05-21T00:10:23.917Z,9.39
2017-05-21T00:10:27.904Z,9.39
2017-05-21T00:10:31.751Z,9.4
2017-05-21T00:10:36.061Z,9.39
2017-05-21T00:10:40.390Z,9.4
2017-05-21T00:10:44.380Z,9.4
2017-05-21T00:10:48.713Z,9.4
2017-05-21T00:10:53.042Z,9.39
2017-05-21T00:10:57.486Z,9.39
2017-05-21T00:11:02.002Z,9.39
2017-05-21T00:11:06.235Z,9.38
2017-05-21T00:11:10.214Z,9.4
2017-05-21T00:11:14.571Z,9.39
2017-05-21T00:11:18.909Z,9.4
2017-05-21T00:11:23.346Z,9.39
2017-05-21T00:11:27.727Z,9.39
2017-05-21T00:11:31.949Z,9.38
2017-05-21T00:11:36.289Z,9.39
2017-05-21T00:11:40.380Z,9.39
2017-05-21T00:11:44.607Z,9.39
2017-05-21T00:11:49.065Z,9.39
2017-05-21T00:11:53.387Z,9.38
2017-05-21T00:11:57.827Z,9.39
2017-05-21T00:12:02.513Z,9.38
2017-05-21T00:12:06.608Z,9.38
2017-05-21T00:12:11.067Z,9.39
2017-05-21T00:12:15.289Z,9.38
2017-05-21T00:12:19.522Z,9.39
2017-05-21T00:12:23.856Z,9.39
2017-05-21T00:12:28.067Z,9.38
2017-05-21T00:12:32.173Z,9.38
2017-05-21T00:12:36.504Z,9.38
2017-05-21T00:12:40.970Z,9.38
2017-05-21T00:12:45.300Z,9.38
2017-05-21T00:12:49.633Z,9.38
2017-05-21T00:12:54.090Z,9.38
2017-05-21T00:12:58.557Z,9.37
2017-05-21T00:13:02.889Z,9.37
2017-05-21T00:13:07.343Z,9.38
2017-05-21T00:13:11.676Z,9.37
2017-05-21T00:13:16.034Z,9.38
2017-05-21T00:13:20.498Z,9.38
2017-05-21T00:13:24.594Z,9.37
2017-05-21T00:13:28.711Z,9.38
2017-05-21T00:13:32.692Z,9.38
2017-05-21T00:13:37.017Z,9.38
2017-05-21T00:13:41.421Z,9.38
2017-05-21T00:13:45.894Z,9.38
2017-05-21T00:13:50.239Z,9.37
2017-05-21T00:13:54.573Z,9.37
2017-05-21T00:13:59.036Z,9.37
2017-05-21T00:14:03.411Z,9.37
2017-05-21T00:14:07.508Z,9.38
2017-05-21T00:14:11.839Z,9.37
2017-05-21T00:14:15.935Z,9.37
2017-05-21T00:14:20.395Z,9.37
2017-05-21T00:14:24.757Z,9.38
2017-05-21T00:14:28.998Z,9.38
2017-05-21T00:14:33.318Z,9.37
2017-05-21T00:14:37.767Z,9.37
2017-05-21T00:14:41.988Z,9.38
2017-05-21T00:14:46.333Z,9.37
2017-05-21T00:14:50.670Z,9.37
2017-05-21T00:14:55.129Z,9.37
2017-05-21T00:14:59.583Z,9.37
2017-05-21T00:15:04.285Z,9.37
2017-05-21T00:15:08.281Z,9.37
2017-05-21T00:15:12.629Z,9.37
2017-05-21T00:15:17.071Z,9.37
2017-05-21T00:15:21.162Z,9.38
2017-05-21T00:15:25.498Z,9.37
2017-05-21T00:15:29.832Z,9.37
2017-05-21T00:15:33.943Z,9.37
2017-05-21T00:15:38.408Z,9.37
2017-05-21T00:15:42.759Z,9.37
2017-05-21T00:15:47.198Z,9.37
2017-05-21T00:15:51.543Z,9.37
2017-05-21T00:15:55.762Z,9.37
2017-05-21T00:16:00.209Z,9.37
2017-05-21T00:16:04.770Z,9.38
2017-05-21T00:16:08.867Z,9.37
2017-05-21T00:16:12.849Z,9.37
2017-05-21T00:16:17.126Z,9.37
2017-05-21T00:16:21.479Z,9.37
2017-05-21T00:16:25.798Z,9.37
2017-05-21T00:16:29.901Z,9.36
2017-05-21T00:16:34.020Z,9.37
2017-05-21T00:16:38.482Z,9.37
2017-05-21T00:16:42.591Z,9.37
2017-05-21T00:16:46.925Z,9.37
2017-05-21T00:16:51.368Z,9.36
2017-05-21T00:16:55.837Z,9.37
2017-05-21T00:17:00.292Z,9.37
2017-05-21T00:17:04.396Z,9.37
2017-05-21T00:17:08.268Z,9.37
2017-05-21T00:17:12.492Z,9.37
2017-05-21T00:17:16.829Z,9.37
2017-05-21T00:17:21.284Z,9.36
2017-05-21T00:17:25.506Z,9.36
2017-05-21T00:17:29.605Z,9.36
2017-05-21T00:17:33.869Z,9.37
2017-05-21T00:17:38.109Z,9.37
2017-05-21T00:17:42.338Z,9.37
2017-05-21T00:17:46.540Z,9.36
2017-05-21T00:17:51.017Z,9.37
2017-05-21T00:17:55.478Z,9.37
2017-05-21T00:17:59.944Z,9.37
2017-05-21T00:18:04.390Z,9.36
2017-05-21T00:18:08.483Z,9.37
2017-05-21T00:18:12.711Z,9.36
2017-05-21T00:18:17.048Z,9.36
2017-05-21T00:18:21.397Z,9.36
2017-05-21T00:18:25.757Z,9.36
2017-05-21T00:18:29.850Z,9.37
2017-05-21T00:18:34.179Z,9.36
2017-05-21T00:18:38.401Z,9.36
2017-05-21T00:18:42.626Z,9.38
2017-05-21T00:18:46.948Z,9.36
2017-05-21T00:18:51.389Z,9.36
2017-05-21T00:18:55.844Z,9.37
2017-05-21T00:19:00.297Z,9.37
2017-05-21T00:19:04.942Z,9.37
2017-05-21T00:19:08.935Z,9.37
2017-05-21T00:19:13.274Z,9.37
2017-05-21T00:19:17.261Z,9.37
2017-05-21T00:19:21.724Z,9.37
2017-05-21T00:19:25.843Z,9.37
2017-05-21T00:19:30.056Z,9.37
2017-05-21T00:19:34.391Z,9.37
2017-05-21T00:19:38.734Z,9.37
2017-05-21T00:19:43.083Z,9.38
2017-05-21T00:19:47.546Z,9.37
2017-05-21T00:19:52.006Z,9.38
2017-05-21T00:19:56.471Z,9.37
2017-05-21T00:20:00.928Z,9.37
2017-05-21T00:20:05.576Z,9.38
2017-05-21T00:20:09.788Z,9.36
2017-05-21T00:20:14.122Z,9.38
2017-05-21T00:20:18.452Z,9.37
2017-05-21T00:20:22.777Z,9.38
2017-05-21T00:20:27.226Z,9.37
2017-05-21T00:20:31.210Z,9.38
2017-05-21T00:20:35.437Z,9.37
2017-05-21T00:20:39.654Z,9.37
2017-05-21T00:20:43.982Z,9.38
2017-05-21T00:20:47.956Z,9.38
2017-05-21T00:20:52.303Z,9.38
2017-05-21T00:20:56.763Z,9.38
2017-05-21T00:21:01.104Z,9.37
2017-05-21T00:21:05.638Z,9.38
2017-05-21T00:21:09.851Z,9.38
2017-05-21T00:21:14.176Z,9.38
2017-05-21T00:21:18.415Z,9.37
2017-05-21T00:21:22.880Z,9.37
2017-05-21T00:21:27.215Z,9.39
2017-05-21T00:21:31.197Z,9.37
2017-05-21T00:21:35.181Z,9.38
2017-05-21T00:21:39.392Z,9.37
2017-05-21T00:21:43.853Z,9.38
2017-05-21T00:21:48.311Z,9.39
2017-05-21T00:21:52.757Z,9.39
2017-05-21T00:21:57.203Z,9.39
2017-05-21T00:22:01.647Z,9.38
2017-05-21T00:22:05.961Z,9.38
2017-05-21T00:22:10.177Z,9.39
2017-05-21T00:22:14.396Z,9.39
2017-05-21T00:22:18.241Z,9.39
2017-05-21T00:22:22.680Z,9.39
2017-05-21T00:22:27.033Z,9.39
2017-05-21T00:22:31.239Z,9.39
2017-05-21T00:22:35.582Z,9.39
2017-05-21T00:22:40.031Z,9.38
2017-05-21T00:22:44.486Z,9.39
2017-05-21T00:22:48.828Z,9.39
2017-05-21T00:22:53.320Z,9.38
2017-05-21T00:22:57.780Z,9.38
2017-05-21T00:23:02.385Z,9.39
2017-05-21T00:23:06.245Z,9.39
2017-05-21T00:23:10.360Z,9.39
2017-05-21T00:23:14.449Z,9.39
2017-05-21T00:23:18.658Z,9.39
2017-05-21T00:23:23.122Z,9.39
2017-05-21T00:23:27.478Z,9.39
2017-05-21T00:23:31.828Z,9.39
2017-05-21T00:23:36.173Z,9.39
2017-05-21T00:23:40.503Z,9.39
2017-05-21T00:23:44.833Z,9.4
2017-05-21T00:23:49.045Z,9.38
2017-05-21T00:23:53.254Z,9.39
2017-05-21T00:23:57.801Z,9.39
2017-05-21T00:24:02.261Z,9.39
2017-05-21T00:24:06.597Z,9.39
2017-05-21T00:24:10.944Z,9.39
2017-05-21T00:24:15.170Z,9.39
2017-05-21T00:24:19.407Z,9.39
2017-05-21T00:24:23.927Z,9.39
2017-05-21T00:24:28.164Z,9.39
2017-05-21T00:24:32.507Z,9.39
2017-05-21T00:24:36.752Z,9.38
2017-05-21T00:24:40.966Z,9.38
2017-05-21T00:24:45.438Z,9.39
2017-05-21T00:24:49.772Z,9.39
2017-05-21T00:24:54.230Z,9.39
2017-05-21T00:24:58.695Z,9.39
2017-05-21T00:25:03.138Z,9.39
2017-05-21T00:25:07.373Z,9.39
2017-05-21T00:25:11.463Z,9.4
2017-05-21T00:25:15.570Z,9.39
2017-05-21T00:25:20.025Z,9.39
2017-05-21T00:25:24.233Z,9.39
2017-05-21T00:25:28.458Z,9.38
2017-05-21T00:25:32.693Z,9.39
2017-05-21T00:25:37.150Z,9.4
2017-05-21T00:25:41.493Z,9.39
2017-05-21T00:25:45.827Z,9.39
2017-05-21T00:25:50.224Z,9.39
2017-05-21T00:25:54.660Z,9.39
2017-05-21T00:25:58.986Z,9.39
2017-05-21T00:26:03.218Z,9.39
2017-05-21T00:26:07.078Z,9.38
2017-05-21T00:26:11.316Z,9.39
2017-05-21T00:26:15.656Z,9.39
2017-05-21T00:26:19.999Z,9.38
2017-05-21T00:26:24.455Z,9.38
2017-05-21T00:26:28.673Z,9.39
2017-05-21T00:26:32.653Z,9.38
2017-05-21T00:26:37.103Z,9.38
2017-05-21T00:26:41.562Z,9.39
2017-05-21T00:26:46.034Z,9.39
2017-05-21T00:26:50.253Z,9.39
2017-05-21T00:26:54.713Z,9.38
2017-05-21T00:26:59.057Z,9.38
2017-05-21T00:27:03.382Z,9.37
2017-05-21T00:27:07.604Z,9.38
2017-05-21T00:27:11.693Z,9.38
2017-05-21T00:27:16.150Z,9.38
2017-05-21T00:27:20.636Z,9.38
2017-05-21T00:27:24.965Z,9.38
2017-05-21T00:27:29.071Z,9.38
2017-05-21T00:27:33.157Z,9.38
2017-05-21T00:27:37.498Z,9.38
2017-05-21T00:27:41.729Z,9.38
2017-05-21T00:27:46.062Z,9.38
2017-05-21T00:27:50.378Z,9.38
2017-05-21T00:27:54.817Z,9.38
2017-05-21T00:27:59.288Z,9.37
2017-05-21T00:28:03.903Z,9.38
2017-05-21T00:28:08.127Z,9.38
2017-05-21T00:28:12.341Z,9.37
2017-05-21T00:28:16.544Z,9.38
2017-05-21T00:28:20.882Z,9.38
2017-05-21T00:28:25.325Z,9.38
2017-05-21T00:28:29.431Z,9.38
2017-05-21T00:28:33.790Z,9.39
2017-05-21T00:28:38.130Z,9.38
2017-05-21T00:28:42.584Z,9.38
2017-05-21T00:28:46.923Z,9.37
2017-05-21T00:28:51.383Z,9.37
2017-05-21T00:28:55.844Z,9.38
2017-05-21T00:29:00.279Z,9.37
2017-05-21T00:29:04.834Z,9.37
2017-05-21T00:29:08.937Z,9.37
2017-05-21T00:29:13.148Z,9.37
2017-05-21T00:29:17.233Z,9.37
2017-05-21T00:29:21.464Z,9.37
2017-05-21T00:29:25.921Z,9.37
2017-05-21T00:29:30.250Z,9.38
2017-05-21T00:29:34.237Z,9.37
2017-05-21T00:29:38.694Z,9.36
2017-05-21T00:29:43.088Z,9.36
2017-05-21T00:29:47.445Z,9.37
2017-05-21T00:29:51.889Z,9.37
2017-05-21T00:29:56.236Z,9.37
2017-05-21T00:30:00.441Z,9.37
2017-05-21T00:30:04.772Z,9.37
2017-05-21T00:30:08.946Z,9.36
2017-05-21T00:30:13.160Z,9.36
2017-05-21T00:30:17.369Z,9.36
2017-05-21T00:30:21.817Z,9.36
2017-05-21T00:30:26.270Z,9.36
2017-05-21T00:30:30.668Z,9.36
2017-05-21T00:30:34.887Z,9.36
2017-05-21T00:30:39.334Z,9.36
2017-05-21T00:30:43.787Z,9.35
2017-05-21T00:30:48.016Z,9.36
2017-05-21T00:30:52.481Z,9.36
2017-05-21T00:30:56.924Z,9.36
2017-05-21T00:31:01.379Z,9.35
2017-05-21T00:31:05.784Z,9.36
2017-05-21T00:31:09.990Z,9.36
2017-05-21T00:31:14.215Z,9.35
2017-05-21T00:31:18.564Z,9.35
2017-05-21T00:31:23.020Z,9.35
2017-05-21T00:31:27.340Z,9.35
2017-05-21T00:31:31.447Z,9.35
2017-05-21T00:31:35.670Z,9.35
2017-05-21T00:31:40.132Z,9.35
2017-05-21T00:31:44.573Z,9.35
2017-05-21T00:31:48.903Z,9.34
2017-05-21T00:31:53.367Z,9.34
2017-05-21T00:31:57.834Z,9.34
2017-05-21T00:32:02.624Z,9.34
2017-05-21T00:32:06.723Z,9.35
2017-05-21T00:32:10.951Z,9.34
2017-05-21T00:32:15.067Z,9.34
2017-05-21T00:32:19.303Z,9.34
2017-05-21T00:32:23.842Z,9.34
2017-05-21T00:32:28.186Z,9.34
2017-05-21T00:32:32.397Z,9.34
2017-05-21T00:32:36.505Z,9.34
2017-05-21T00:32:40.968Z,9.34
2017-05-21T00:32:45.313Z,9.34
2017-05-21T00:32:49.646Z,9.35
2017-05-21T00:32:53.991Z,9.35
2017-05-21T00:32:58.459Z,9.34
2017-05-21T00:33:02.806Z,9.34
2017-05-21T00:33:07.138Z,9.34
2017-05-21T00:33:11.361Z,9.34
2017-05-21T00:33:15.692Z,9.34
2017-05-21T00:33:20.015Z,9.34
2017-05-21T00:33:24.343Z,9.34
2017-05-21T00:33:28.433Z,9.33
2017-05-21T00:33:32.782Z,9.33
2017-05-21T00:33:37.132Z,9.33
2017-05-21T00:33:41.453Z,9.33
2017-05-21T00:33:45.933Z,9.32
2017-05-21T00:33:50.383Z,9.33
2017-05-21T00:33:54.721Z,9.33
2017-05-21T00:33:59.234Z,9.33
2017-05-21T00:34:03.779Z,9.33
2017-05-21T00:34:07.877Z,9.33
2017-05-21T00:34:12.107Z,9.33
2017-05-21T00:34:16.558Z,9.32
2017-05-21T00:34:20.910Z,9.32
2017-05-21T00:34:25.257Z,9.32
2017-05-21T00:34:29.609Z,9.32
2017-05-21T00:34:33.824Z,9.32
2017-05-21T00:34:38.044Z,9.32
2017-05-21T00:34:42.499Z,9.31
2017-05-21T00:34:46.661Z,9.33
2017-05-21T00:34:51.120Z,9.32
2017-05-21T00:34:55.583Z,9.33
2017-05-21T00:35:00.054Z,9.32
2017-05-21T00:35:04.620Z,9.33
2017-05-21T00:35:08.635Z,9.32
2017-05-21T00:35:12.749Z,9.32
2017-05-21T00:35:16.838Z,9.32
2017-05-21T00:35:21.285Z,9.32
2017-05-21T00:35:25.609Z,9.31
2017-05-21T00:35:29.715Z,9.31
2017-05-21T00:35:33.949Z,9.31
2017-05-21T00:35:38.177Z,9.31
2017-05-21T00:35:42.521Z,9.31
2017-05-21T00:35:46.966Z,9.32
2017-05-21T00:35:51.408Z,9.31
2017-05-21T00:35:55.932Z,9.32
2017-05-21T00:36:00.379Z,9.32
2017-05-21T00:36:04.824Z,9.32
2017-05-21T00:36:09.161Z,9.31
2017-05-21T00:36:13.264Z,9.32
2017-05-21T00:36:17.480Z,9.31
2017-05-21T00:36:21.878Z,9.32
2017-05-21T00:36:26.221Z,9.32
2017-05-21T00:36:30.437Z,9.31
2017-05-21T00:36:34.531Z,9.31
2017-05-21T00:36:38.752Z,9.31
2017-05-21T00:36:42.855Z,9.31
2017-05-21T00:36:47.173Z,9.32
2017-05-21T00:36:51.378Z,9.32
2017-05-21T00:36:55.816Z,9.31
2017-05-21T00:37:00.160Z,9.32
2017-05-21T00:37:04.375Z,9.31
2017-05-21T00:37:08.721Z,9.32
2017-05-21T00:37:12.829Z,9.32
2017-05-21T00:37:17.045Z,9.31
2017-05-21T00:37:21.497Z,9.31
2017-05-21T00:37:25.841Z,9.31
2017-05-21T00:37:30.293Z,9.31
2017-05-21T00:37:34.512Z,9.31
2017-05-21T00:37:38.745Z,9.31
2017-05-21T00:37:42.966Z,9.3
2017-05-21T00:37:47.431Z,9.31
2017-05-21T00:37:51.530Z,9.3
2017-05-21T00:37:56.061Z,9.3
2017-05-21T00:38:00.512Z,9.31
2017-05-21T00:38:04.940Z,9.3
2017-05-21T00:38:09.268Z,9.31
2017-05-21T00:38:13.617Z,9.3
2017-05-21T00:38:17.966Z,9.3
2017-05-21T00:38:22.312Z,9.31
2017-05-21T00:38:26.523Z,9.31
2017-05-21T00:38:30.917Z,9.31
2017-05-21T00:38:35.023Z,9.3
2017-05-21T00:38:39.363Z,9.3
2017-05-21T00:38:43.593Z,9.3
2017-05-21T00:38:47.808Z,9.3
2017-05-21T00:38:52.148Z,9.3
2017-05-21T00:38:56.616Z,9.3
2017-05-21T00:39:01.094Z,9.3
2017-05-21T00:39:05.439Z,9.29
2017-05-21T00:39:09.650Z,9.3
2017-05-21T00:39:13.874Z,9.3
2017-05-21T00:39:18.199Z,9.3
2017-05-21T00:39:22.313Z,9.31
2017-05-21T00:39:26.538Z,9.31
2017-05-21T00:39:30.758Z,9.3
2017-05-21T00:39:34.971Z,9.31
2017-05-21T00:39:39.319Z,9.31
2017-05-21T00:39:43.419Z,9.31
2017-05-21T00:39:47.651Z,9.3
2017-05-21T00:39:52.117Z,9.3
2017-05-21T00:39:56.567Z,9.3
2017-05-21T00:40:00.902Z,9.31
2017-05-21T00:40:05.296Z,9.3
2017-05-21T00:40:09.413Z,9.31
2017-05-21T00:40:13.618Z,9.31
2017-05-21T00:40:18.076Z,9.3
2017-05-21T00:40:22.401Z,9.3
2017-05-21T00:40:26.740Z,9.3
2017-05-21T00:40:30.848Z,9.3
2017-05-21T00:40:35.174Z,9.31
2017-05-21T00:40:39.509Z,9.3
2017-05-21T00:40:43.822Z,9.31
2017-05-21T00:40:48.144Z,9.29
2017-05-21T00:40:52.245Z,9.3
2017-05-21T00:40:56.696Z,9.3
2017-05-21T00:41:01.018Z,9.29
2017-05-21T00:41:05.353Z,9.3
2017-05-21T00:41:09.342Z,9.29
2017-05-21T00:41:13.676Z,9.29
2017-05-21T00:41:18.016Z,9.29
2017-05-21T00:41:22.232Z,9.3
2017-05-21T00:41:26.565Z,9.3
2017-05-21T00:41:30.773Z,9.3
2017-05-21T00:41:34.857Z,9.3
2017-05-21T00:41:38.958Z,9.29
2017-05-21T00:41:43.062Z,9.29
2017-05-21T00:41:47.445Z,9.3
2017-05-21T00:41:51.782Z,9.29
2017-05-21T00:41:56.225Z,9.29
2017-05-21T00:42:00.689Z,9.3
2017-05-21T00:42:05.149Z,9.29
2017-05-21T00:42:09.250Z,9.29
2017-05-21T00:42:13.580Z,9.3
2017-05-21T00:42:17.917Z,9.3
2017-05-21T00:42:22.247Z,9.3
2017-05-21T00:42:26.696Z,9.29
2017-05-21T00:42:30.792Z,9.29
2017-05-21T00:42:35.013Z,9.28
2017-05-21T00:42:39.487Z,9.29
2017-05-21T00:42:43.601Z,9.29
2017-05-21T00:42:47.799Z,9.29
2017-05-21T00:42:52.149Z,9.29
2017-05-21T00:42:56.509Z,9.29
2017-05-21T00:43:00.845Z,9.29
2017-05-21T00:43:05.299Z,9.29
2017-05-21T00:43:09.536Z,9.3
2017-05-21T00:43:13.630Z,9.29
2017-05-21T00:43:17.856Z,9.29
2017-05-21T00:43:22.178Z,9.29
2017-05-21T00:43:26.650Z,9.29
2017-05-21T00:43:30.996Z,9.29
2017-05-21T00:43:35.107Z,9.29
2017-05-21T00:43:39.509Z,9.29
2017-05-21T00:43:43.630Z,9.29
2017-05-21T00:43:48.079Z,9.28
2017-05-21T00:43:52.543Z,9.3
2017-05-21T00:43:57.010Z,9.28
2017-05-21T00:44:01.345Z,9.28
2017-05-21T00:44:05.853Z,9.29
2017-05-21T00:44:09.945Z,9.29
2017-05-21T00:44:14.286Z,9.28
2017-05-21T00:44:18.740Z,9.28
2017-05-21T00:44:23.193Z,9.29
2017-05-21T00:44:27.531Z,9.29
2017-05-21T00:44:31.642Z,9.28
2017-05-21T00:44:35.735Z,9.29
2017-05-21T00:44:40.192Z,9.29
2017-05-21T00:44:44.525Z,9.28
2017-05-21T00:44:48.650Z,9.29
2017-05-21T00:44:53.116Z,9.29
2017-05-21T00:44:57.567Z,9.29
2017-05-21T00:45:01.919Z,9.28
2017-05-21T00:45:06.248Z,9.29
2017-05-21T00:45:10.473Z,9.28
2017-05-21T00:45:14.803Z,9.28
2017-05-21T00:45:19.140Z,9.28
2017-05-21T00:45:23.360Z,9.28
2017-05-21T00:45:27.459Z,9.28
2017-05-21T00:45:31.680Z,9.28
2017-05-21T00:45:35.670Z,9.28
2017-05-21T00:45:39.985Z,9.28
2017-05-21T00:45:44.330Z,9.27
2017-05-21T00:45:48.448Z,9.27
2017-05-21T00:45:52.888Z,9.27
2017-05-21T00:45:57.348Z,9.28
2017-05-21T00:46:01.938Z,9.27
2017-05-21T00:46:06.257Z,9.27
2017-05-21T00:46:10.457Z,9.27
2017-05-21T00:46:14.670Z,9.26
2017-05-21T00:46:18.792Z,9.27
2017-05-21T00:46:23.135Z,9.26
2017-05-21T00:46:27.460Z,9.27
2017-05-21T00:46:31.558Z,9.26
2017-05-21T00:46:35.771Z,9.25
2017-05-21T00:46:40.104Z,9.26
2017-05-21T00:46:44.430Z,9.25
2017-05-21T00:46:48.777Z,9.26
2017-05-21T00:46:53.120Z,9.25
2017-05-21T00:46:57.470Z,9.25
2017-05-21T00:47:01.693Z,9.25
2017-05-21T00:47:05.719Z,9.25
2017-05-21T00:47:09.969Z,9.25
2017-05-21T00:47:14.186Z,9.25
2017-05-21T00:47:18.647Z,9.24
2017-05-21T00:47:23.092Z,9.26
2017-05-21T00:47:27.306Z,9.25
2017-05-21T00:47:31.687Z,9.25
2017-05-21T00:47:36.016Z,9.25
2017-05-21T00:47:40.238Z,9.25
2017-05-21T00:47:44.692Z,9.25
2017-05-21T00:47:49.032Z,9.25
2017-05-21T00:47:53.261Z,9.25
2017-05-21T00:47:57.599Z,9.25
2017-05-21T00:48:02.067Z,9.25
2017-05-21T00:48:06.292Z,9.25
2017-05-21T00:48:10.623Z,9.25
2017-05-21T00:48:14.960Z,9.24
2017-05-21T00:48:19.310Z,9.23
2017-05-21T00:48:23.675Z,9.25
2017-05-21T00:48:27.996Z,9.23
2017-05-21T00:48:32.335Z,9.25
2017-05-21T00:48:36.698Z,9.24
2017-05-21T00:48:40.798Z,9.25
2017-05-21T00:48:45.250Z,9.25
2017-05-21T00:48:49.482Z,9.24
2017-05-21T00:48:53.945Z,9.24
2017-05-21T00:48:58.294Z,9.25
2017-05-21T00:49:02.536Z,9.23
2017-05-21T00:49:06.866Z,9.24
2017-05-21T00:49:11.192Z,9.23
2017-05-21T00:49:15.295Z,9.23
2017-05-21T00:49:19.632Z,9.24
2017-05-21T00:49:24.107Z,9.24
2017-05-21T00:49:28.328Z,9.23
2017-05-21T00:49:32.309Z,9.23
2017-05-21T00:49:36.521Z,9.23
2017-05-21T00:49:40.866Z,9.22
2017-05-21T00:49:45.196Z,9.23
2017-05-21T00:49:49.292Z,9.23
2017-05-21T00:49:53.644Z,9.23
2017-05-21T00:49:57.994Z,9.22
2017-05-21T00:50:02.351Z,9.24
2017-05-21T00:50:06.443Z,9.23
2017-05-21T00:50:10.308Z,9.23
2017-05-21T00:50:14.518Z,9.22
2017-05-21T00:50:18.756Z,9.22
2017-05-21T00:50:23.223Z,9.22
2017-05-21T00:50:27.431Z,9.22
2017-05-21T00:50:31.739Z,9.22
2017-05-21T00:50:36.179Z,9.22
2017-05-21T00:50:41.256Z,9.21
2017-05-21T00:50:45.573Z,9.22
2017-05-21T00:50:49.794Z,9.22
2017-05-21T00:50:54.248Z,9.22
2017-05-21T00:50:58.459Z,9.22
2017-05-21T00:51:02.797Z,9.22
2017-05-21T00:51:06.891Z,9.22
2017-05-21T00:51:11.349Z,9.22
2017-05-21T00:51:15.808Z,9.22
2017-05-21T00:51:20.138Z,9.22
2017-05-21T00:51:24.596Z,9.22
2017-05-21T00:51:28.830Z,9.21
2017-05-21T00:51:33.052Z,9.21
2017-05-21T00:51:37.255Z,9.21
2017-05-21T00:51:41.583Z,9.21
2017-05-21T00:51:45.809Z,9.21
2017-05-21T00:51:50.141Z,9.21
2017-05-21T00:51:54.475Z,9.21
2017-05-21T00:51:58.924Z,9.21
2017-05-21T00:52:03.262Z,9.2
2017-05-21T00:52:07.604Z,9.2
2017-05-21T00:52:11.932Z,9.21
2017-05-21T00:52:16.321Z,9.21
2017-05-21T00:52:20.511Z,9.2
2017-05-21T00:52:24.951Z,9.2
2017-05-21T00:52:29.055Z,9.21
2017-05-21T00:52:33.275Z,9.2
2017-05-21T00:52:37.369Z,9.2
2017-05-21T00:52:41.715Z,9.19
2017-05-21T00:52:46.064Z,9.2
2017-05-21T00:52:50.397Z,9.2
2017-05-21T00:52:54.617Z,9.19
2017-05-21T00:52:59.067Z,9.2
2017-05-21T00:53:03.406Z,9.2
2017-05-21T00:53:07.620Z,9.19
2017-05-21T00:53:11.962Z,9.2
2017-05-21T00:53:16.414Z,9.19
2017-05-21T00:53:20.743Z,9.19
2017-05-21T00:53:25.075Z,9.18
2017-05-21T00:53:29.069Z,9.18
2017-05-21T00:53:33.193Z,9.18
2017-05-21T00:53:37.428Z,9.18
2017-05-21T00:53:41.634Z,9.18
2017-05-21T00:53:45.980Z,9.19
2017-05-21T00:53:50.314Z,9.18
2017-05-21T00:53:54.542Z,9.18
2017-05-21T00:53:59.012Z,9.18
2017-05-21T00:54:03.769Z,9.18
2017-05-21T00:54:07.744Z,9.18
2017-05-21T00:54:11.746Z,9.18
2017-05-21T00:54:15.841Z,9.18
2017-05-21T00:54:20.300Z,9.18
2017-05-21T00:54:24.763Z,9.18
2017-05-21T00:54:29.099Z,9.18
2017-05-21T00:54:33.440Z,9.18
2017-05-21T00:54:37.790Z,9.17
2017-05-21T00:54:42.064Z,9.18
2017-05-21T00:54:46.284Z,9.17
2017-05-21T00:54:50.729Z,9.17
2017-05-21T00:54:55.060Z,9.18
2017-05-21T00:54:59.265Z,9.18
2017-05-21T00:55:03.521Z,9.17
2017-05-21T00:55:07.749Z,9.17
2017-05-21T00:55:12.089Z,9.17
2017-05-21T00:55:16.300Z,9.18
2017-05-21T00:55:20.524Z,9.18
2017-05-21T00:55:24.968Z,9.16
2017-05-21T00:55:29.302Z,9.17
2017-05-21T00:55:33.529Z,9.17
2017-05-21T00:55:37.965Z,9.17
2017-05-21T00:55:42.313Z,9.17
2017-05-21T00:55:46.765Z,9.17
2017-05-21T00:55:51.178Z,9.17
2017-05-21T00:55:55.395Z,9.17
2017-05-21T00:55:59.846Z,9.17
2017-05-21T00:56:04.179Z,9.16
2017-05-21T00:56:08.294Z,9.17
2017-05-21T00:56:12.512Z,9.17
2017-05-21T00:56:16.759Z,9.17
2017-05-21T00:56:20.961Z,9.16
2017-05-21T00:56:25.170Z,9.17
2017-05-21T00:56:29.257Z,9.16
2017-05-21T00:56:33.493Z,9.17
2017-05-21T00:56:37.949Z,9.16
2017-05-21T00:56:42.409Z,9.17
2017-05-21T00:56:46.883Z,9.16
2017-05-21T00:56:51.330Z,9.17
2017-05-21T00:56:55.432Z,9.16
2017-05-21T00:56:59.881Z,9.16
2017-05-21T00:57:04.398Z,9.17
2017-05-21T00:57:08.372Z,9.16
2017-05-21T00:57:12.708Z,9.16
2017-05-21T00:57:16.920Z,9.17
2017-05-21T00:57:21.243Z,9.16
2017-05-21T00:57:25.468Z,9.16
2017-05-21T00:57:29.743Z,9.17